Time;durP1;ratioP1;P1;durP2;ratioP2;P2;SDS_P1;SDS_P2;PMS_P1;PMS_P2;Temp;Humidity;BMP_temperature;BMP_pressure;BME280_temperature;BME280_humidity;BME280_pressure;Samples;Min_cycle;Max_cycle;Signal;HPM_P1;HPM_P2
2023/10/13 00:00:37;;;;;;;68.50;44.58;;;15.80;99.90;;;;;;5031073;28;20483;-76
2023/10/13 00:03:14;;;;;;;61.53;41.03;;;15.80;99.90;;;;;;5042464;28;20064;-76
2023/10/13 00:05:41;;;;;;;73.32;43.00;;;15.80;99.90;;;;;;5041055;28;20049;-76
2023/10/13 00:08:09;;;;;;;106.85;45.92;;;15.80;99.90;;;;;;5025929;28;20588;-76
2023/10/13 00:10:35;;;;;;;64.95;38.95;;;15.90;99.90;;;;;;5025063;28;20128;-76
2023/10/13 00:13:15;;;;;;;65.50;41.33;;;15.80;99.90;;;;;;5025253;28;20045;-76
2023/10/13 00:15:58;;;;;;;72.30;41.83;;;15.80;99.90;;;;;;5037186;28;20546;-76
2023/10/13 00:18:34;;;;;;;62.03;39.95;;;15.80;99.90;;;;;;5026207;28;20052;-76
2023/10/13 00:21:01;;;;;;;90.22;44.65;;;15.90;99.90;;;;;;5043521;28;20045;-76
2023/10/13 00:23:27;;;;;;;76.18;43.00;;;15.90;99.90;;;;;;5028770;28;20073;-76
2023/10/13 00:26:02;;;;;;;104.15;46.58;;;15.90;99.90;;;;;;5044687;28;20068;-76
2023/10/13 00:28:35;;;;;;;68.30;43.83;;;16.00;99.90;;;;;;5029635;28;20119;-76
2023/10/13 00:31:10;;;;;;;68.90;45.67;;;16.00;99.90;;;;;;5052512;28;20507;-76
2023/10/13 00:33:37;;;;;;;59.72;42.05;;;16.10;99.90;;;;;;5020183;28;20080;-76
2023/10/13 00:36:06;;;;;;;64.25;42.17;;;16.10;99.90;;;;;;5030495;28;20557;-76
2023/10/13 00:38:32;;;;;;;60.53;42.00;;;16.10;99.90;;;;;;5041525;28;20489;-75
2023/10/13 00:41:04;;;;;;;67.22;42.13;;;16.20;99.90;;;;;;5029118;28;20435;-76
2023/10/13 00:43:32;;;;;;;59.95;40.00;;;16.20;99.90;;;;;;5038275;28;20508;-76
2023/10/13 00:48:34;;;;;;;62.60;40.33;;;16.30;99.90;;;;;;5032772;28;20065;-78
2023/10/13 00:51:07;;;;;;;56.03;38.40;;;16.30;99.90;;;;;;5030446;28;20094;-78
2023/10/13 00:53:39;;;;;;;58.75;39.08;;;16.30;99.90;;;;;;5035197;28;20048;-78
2023/10/13 00:56:27;;;;;;;58.63;39.92;;;16.30;99.90;;;;;;5027677;28;20618;-78
2023/10/13 00:58:57;;;;;;;65.88;41.72;;;16.30;99.90;;;;;;5027705;28;20041;-79
2023/10/13 01:01:32;;;;;;;96.63;42.42;;;16.40;99.90;;;;;;5040618;28;20080;-75
2023/10/13 01:04:03;;;;;;;55.00;36.83;;;16.40;99.90;;;;;;5059371;28;20503;-76
2023/10/13 01:06:29;;;;;;;51.38;37.38;;;16.40;99.90;;;;;;5039541;28;20045;-76
2023/10/13 01:09:10;;;;;;;52.03;34.88;;;16.40;99.90;;;;;;5040157;28;20033;-76
2023/10/13 01:11:42;;;;;;;52.40;35.15;;;16.40;99.90;;;;;;5030694;28;20438;-76
2023/10/13 01:14:29;;;;;;;62.25;37.42;;;16.40;99.90;;;;;;5024960;28;20045;-76
2023/10/13 01:16:58;;;;;;;73.22;39.83;;;16.40;99.90;;;;;;5025733;28;20029;-76
2023/10/13 01:19:27;;;;;;;58.80;36.08;;;16.40;99.90;;;;;;5026426;28;20057;-76
2023/10/13 01:21:57;;;;;;;49.43;33.97;;;16.40;99.90;;;;;;5042636;28;20503;-76
2023/10/13 01:24:24;;;;;;;46.33;34.10;;;16.40;99.90;;;;;;5026757;28;20321;-76
2023/10/13 01:26:52;;;;;;;87.88;40.00;;;16.40;99.90;;;;;;5040276;28;20064;-76
2023/10/13 01:29:19;;;;;;;49.97;35.40;;;16.40;99.90;;;;;;5023113;28;20041;-76
2023/10/13 01:31:46;;;;;;;53.03;36.15;;;16.40;99.90;;;;;;5033467;28;20131;-76
2023/10/13 01:34:21;;;;;;;61.63;38.13;;;16.40;99.90;;;;;;5042154;28;20565;-76
2023/10/13 01:36:55;;;;;;;60.95;35.95;;;16.40;99.90;;;;;;5038265;28;20055;-76
2023/10/13 01:39:28;;;;;;;60.83;37.17;;;16.40;99.90;;;;;;5041159;28;20057;-76
2023/10/13 01:41:55;;;;;;;53.78;37.25;;;16.40;99.90;;;;;;5037936;28;20566;-76
2023/10/13 01:44:30;;;;;;;57.92;37.33;;;16.40;99.90;;;;;;5034750;28;20498;-75
2023/10/13 01:46:59;;;;;;;61.15;39.50;;;16.40;99.90;;;;;;5037893;28;20057;-76
2023/10/13 01:49:26;;;;;;;59.42;37.83;;;16.40;99.90;;;;;;5024957;28;20080;-76
2023/10/13 01:51:51;;;;;;;63.75;38.92;;;16.40;99.90;;;;;;5029915;28;20111;-76
2023/10/13 01:54:17;;;;;;;61.22;38.35;;;16.40;99.90;;;;;;5023287;28;20049;-76
2023/10/13 01:56:43;;;;;;;59.10;38.30;;;16.40;99.90;;;;;;5039262;28;20128;-76
2023/10/13 01:59:12;;;;;;;58.88;38.25;;;16.50;99.90;;;;;;5041882;28;20533;-76
2023/10/13 02:01:39;;;;;;;56.53;39.10;;;16.50;99.90;;;;;;5037513;28;20049;-76
2023/10/13 02:04:06;;;;;;;65.05;38.97;;;16.50;99.90;;;;;;5033091;28;20812;-76
2023/10/13 02:06:34;;;;;;;58.95;37.63;;;16.50;99.90;;;;;;5040557;28;20073;-76
2023/10/13 02:09:15;;;;;;;78.95;40.78;;;16.50;99.90;;;;;;5012111;28;20049;-76
2023/10/13 02:11:43;;;;;;;52.15;36.88;;;16.50;99.90;;;;;;5026784;28;20170;-76
2023/10/13 02:14:11;;;;;;;51.50;36.22;;;16.50;99.90;;;;;;5043938;28;20039;-76
2023/10/13 02:16:38;;;;;;;70.78;39.63;;;16.50;99.90;;;;;;5019078;28;20087;-76
2023/10/13 02:19:04;;;;;;;50.22;36.25;;;16.50;99.90;;;;;;5018750;28;20142;-76
2023/10/13 02:21:32;;;;;;;62.10;39.15;;;16.40;99.90;;;;;;5010867;28;21303;-76
2023/10/13 02:24:02;;;;;;;55.55;36.97;;;16.50;99.90;;;;;;5038949;28;20446;-76
2023/10/13 02:26:30;;;;;;;54.85;36.75;;;16.50;99.90;;;;;;5010227;28;20100;-76
2023/10/13 02:29:07;;;;;;;54.13;37.50;;;16.50;99.90;;;;;;5015859;28;20095;-76
2023/10/13 02:31:35;;;;;;;44.97;35.25;;;16.50;99.90;;;;;;5036180;28;20049;-76
2023/10/13 02:34:08;;;;;;;54.83;37.65;;;16.50;99.90;;;;;;5031769;28;20134;-76
2023/10/13 02:36:48;;;;;;;51.38;37.38;;;16.50;99.90;;;;;;5050605;28;20331;-76
2023/10/13 02:39:24;;;;;;;50.25;36.08;;;16.50;99.90;;;;;;5037945;28;20045;-76
2023/10/13 02:41:51;;;;;;;48.33;36.72;;;16.50;99.90;;;;;;5043956;28;20443;-75
2023/10/13 02:44:36;;;;;;;87.63;41.67;;;16.50;99.90;;;;;;5034650;28;20129;-76
2023/10/13 02:47:13;;;;;;;46.42;35.65;;;16.50;99.90;;;;;;5037637;28;20059;-76
2023/10/13 02:49:43;;;;;;;46.20;35.17;;;16.50;99.90;;;;;;5023449;28;20060;-76
2023/10/13 02:52:09;;;;;;;52.25;37.92;;;16.50;99.90;;;;;;5039359;28;20425;-75
2023/10/13 02:55:25;;;;;;;53.33;36.08;;;16.50;99.90;;;;;;5040325;28;20067;-76
2023/10/13 02:57:31;;;;;;;46.67;34.53;;;16.50;99.90;;;;;;5034465;28;20412;-76
2023/10/13 03:00:11;;;;;;;51.30;33.92;;;16.50;99.90;;;;;;5040374;28;20094;-75
2023/10/13 03:02:43;;;;;;;49.83;35.40;;;16.50;99.90;;;;;;5037694;28;20044;-76
2023/10/13 03:05:09;;;;;;;59.60;35.13;;;16.50;99.90;;;;;;5040383;28;20135;-76
2023/10/13 03:07:36;;;;;;;45.67;32.75;;;16.50;99.90;;;;;;5037035;28;20207;-76
2023/10/13 03:10:12;;;;;;;48.45;34.35;;;16.50;99.90;;;;;;5040251;28;20045;-75
2023/10/13 03:12:39;;;;;;;47.28;33.95;;;16.50;99.90;;;;;;5039676;28;20508;-76
2023/10/13 03:17:45;;;;;;;55.85;33.00;;;16.50;99.90;;;;;;5053089;28;20052;-76
2023/10/13 03:20:13;;;;;;;49.05;33.25;;;16.50;99.90;;;;;;5024200;28;20041;-76
2023/10/13 03:22:39;;;;;;;60.33;33.28;;;16.50;99.90;;;;;;5037434;28;20461;-75
2023/10/13 03:25:07;;;;;;;40.00;28.27;;;16.50;99.90;;;;;;5034781;28;20163;-76
2023/10/13 03:30:18;;;;;;;63.85;33.13;;;16.40;99.90;;;;;;5034811;28;20049;-76
2023/10/13 03:32:47;;;;;;;40.55;28.83;;;16.50;99.90;;;;;;5024405;28;20053;-76
2023/10/13 03:35:14;;;;;;;66.60;33.20;;;16.40;99.90;;;;;;5024196;28;20040;-76
2023/10/13 03:37:40;;;;;;;39.88;27.77;;;16.40;99.90;;;;;;5042174;28;20053;-75
2023/10/13 03:43:04;;;;;;;33.20;24.52;;;16.50;99.90;;;;;;5038757;28;20111;-76
2023/10/13 03:45:47;;;;;;;44.50;25.60;;;16.50;99.90;;;;;;5049889;28;20100;-75
2023/10/13 03:51:15;;;;;;;62.15;29.00;;;16.40;99.90;;;;;;5055362;28;20049;-76
2023/10/13 03:53:54;;;;;;;38.67;26.38;;;16.50;99.90;;;;;;5038056;28;20403;-76
2023/10/13 03:56:28;;;;;;;62.08;29.52;;;16.50;99.90;;;;;;5021713;28;20057;-76
2023/10/13 03:59:06;;;;;;;46.75;28.52;;;16.50;99.90;;;;;;5021226;28;20087;-75
2023/10/13 04:04:43;;;;;;;89.57;31.15;;;16.40;99.90;;;;;;5033552;28;20130;-77
2023/10/13 04:17:27;;;;;;;38.25;27.02;;;16.50;99.90;;;;;;5050259;28;20847;-76
2023/10/13 04:36:21;;;;;;;37.40;27.50;;;16.50;99.90;;;;;;5040470;28;20048;-75
2023/10/13 04:39:00;;;;;;;43.17;31.27;;;16.50;99.90;;;;;;5042168;28;20495;-76
2023/10/13 04:41:57;;;;;;;41.03;29.92;;;16.40;99.90;;;;;;5042900;28;20460;-76
2023/10/13 04:49:28;;;;;;;49.05;29.38;;;16.50;99.90;;;;;;5060985;28;20150;-75
2023/10/13 04:51:58;;;;;;;72.15;34.55;;;16.40;99.90;;;;;;5038452;28;20045;-76
2023/10/13 04:54:34;;;;;;;40.55;28.02;;;16.40;99.90;;;;;;5044217;28;20410;-76
2023/10/13 06:30:07;;;;;;;10.77;9.07;;;16.20;99.90;;;;;;5042123;28;20131;-78
2023/10/13 06:32:39;;;;;;;11.10;9.25;;;16.20;99.90;;;;;;5037098;28;20080;-77
2023/10/13 06:35:18;;;;;;;12.75;9.82;;;16.20;99.90;;;;;;5026012;28;20555;-78
2023/10/13 06:37:45;;;;;;;10.95;9.27;;;16.20;99.90;;;;;;5039309;28;20431;-77
2023/10/13 06:42:47;;;;;;;8.88;7.97;;;16.30;99.90;;;;;;5055641;28;20080;-77
2023/10/13 06:45:13;;;;;;;9.20;7.65;;;16.30;99.90;;;;;;5016754;28;20579;-77
2023/10/13 06:47:45;;;;;;;10.23;7.85;;;16.30;99.90;;;;;;5035085;28;20063;-77
2023/10/13 06:50:15;;;;;;;11.68;7.55;;;16.30;99.90;;;;;;5037784;28;20041;-76
2023/10/13 06:52:46;;;;;;;9.20;7.78;;;16.40;99.90;;;;;;5035376;28;20152;-76
2023/10/13 06:55:28;;;;;;;9.65;8.05;;;16.40;99.90;;;;;;5034909;28;20041;-77
2023/10/13 06:57:59;;;;;;;12.98;8.15;;;16.40;99.90;;;;;;5021956;28;20044;-76
2023/10/13 07:00:30;;;;;;;10.70;7.45;;;16.40;99.90;;;;;;5032797;28;20091;-76
2023/10/13 07:03:05;;;;;;;;;;;16.50;99.90;;;;;;5030148;28;20059;-77
2023/10/13 07:05:41;;;;;;;10.70;7.53;;;16.50;99.90;;;;;;5035217;28;19924;-77
2023/10/13 07:08:08;;;;;;;12.60;7.93;;;16.50;99.90;;;;;;5030697;28;20449;-77
2023/10/13 07:10:48;;;;;;;15.35;7.85;;;16.50;99.90;;;;;;5026484;28;20049;-76
2023/10/13 07:13:14;;;;;;;10.73;6.43;;;16.50;99.90;;;;;;5038345;28;20132;-77
2023/10/13 07:15:45;;;;;;;14.60;7.93;;;16.50;99.90;;;;;;5033180;28;20052;-76
2023/10/13 07:18:17;;;;;;;11.20;6.93;;;16.50;99.90;;;;;;5054309;28;20048;-76
2023/10/13 07:20:46;;;;;;;14.15;7.85;;;16.50;99.90;;;;;;5020276;28;20124;-76
2023/10/13 07:23:19;;;;;;;11.63;6.95;;;16.50;99.90;;;;;;5052418;28;20453;-76
2023/10/13 07:25:54;;;;;;;10.35;6.35;;;16.50;99.90;;;;;;5018606;28;20489;-76
2023/10/13 07:28:20;;;;;;;10.63;7.38;;;16.50;99.90;;;;;;5037269;28;20495;-76
2023/10/13 07:31:08;;;;;;;9.30;6.10;;;16.50;99.90;;;;;;5019258;28;20037;-75
2023/10/13 07:33:35;;;;;;;14.20;7.32;;;16.50;99.90;;;;;;5030716;28;20609;-76
2023/10/13 07:36:11;;;;;;;10.93;7.72;;;16.50;99.90;;;;;;5021453;28;20044;-76
2023/10/13 07:38:42;;;;;;;15.85;8.07;;;16.40;99.90;;;;;;5035871;28;20041;-76
2023/10/13 07:41:15;;;;;;;13.30;7.70;;;16.50;99.90;;;;;;5033441;28;20045;-76
2023/10/13 07:43:43;;;;;;;14.23;7.93;;;16.50;99.90;;;;;;5036763;28;20131;-76
2023/10/13 07:46:12;;;;;;;14.88;7.43;;;16.50;99.90;;;;;;5025188;28;20076;-77
2023/10/13 07:48:45;;;;;;;16.65;8.70;;;16.50;99.90;;;;;;5027848;28;20389;-76
2023/10/13 07:51:13;;;;;;;18.80;10.10;;;16.50;99.90;;;;;;5032908;28;20649;-76
2023/10/13 07:53:43;;;;;;;20.35;9.02;;;16.50;99.90;;;;;;5038254;28;20053;-76
2023/10/13 07:56:12;;;;;;;14.27;8.38;;;16.50;99.90;;;;;;5035888;28;20059;-76
2023/10/13 07:59:00;;;;;;;14.80;8.25;;;16.50;99.90;;;;;;5035995;28;20068;-76
2023/10/13 08:01:26;;;;;;;11.82;7.57;;;16.50;99.90;;;;;;5036192;28;20547;-76
2023/10/13 08:04:11;;;;;;;14.00;8.65;;;16.50;99.90;;;;;;5050930;28;20084;-76
2023/10/13 08:06:39;;;;;;;15.88;8.55;;;16.50;99.90;;;;;;5021222;28;20033;-76
2023/10/13 08:09:09;;;;;;;15.48;9.40;;;16.50;99.90;;;;;;5032075;28;20069;-76
2023/10/13 08:11:38;;;;;;;16.50;9.90;;;16.60;99.90;;;;;;5036870;28;20504;-76
2023/10/13 08:14:12;;;;;;;18.05;10.50;;;16.60;99.90;;;;;;5040195;28;20037;-77
2023/10/13 08:16:45;;;;;;;16.77;9.43;;;16.60;99.90;;;;;;5035808;28;20479;-76
2023/10/13 08:19:16;;;;;;;19.55;10.90;;;16.60;99.90;;;;;;5035463;28;20496;-76
2023/10/13 08:21:51;;;;;;;19.80;10.85;;;16.60;99.90;;;;;;5037011;28;20088;-77
2023/10/13 08:48:15;;;;;;;18.77;10.82;;;16.80;99.90;;;;;;5039819;28;20194;-77
2023/10/13 08:53:31;;;;;;;26.25;12.32;;;16.90;99.90;;;;;;5035192;28;20170;-78
2023/10/13 09:01:35;;;;;;;19.02;13.27;;;17.00;99.90;;;;;;5049006;28;21037;-76
2023/10/13 09:06:42;;;;;;;20.38;13.93;;;17.10;99.90;;;;;;5033272;28;20072;-76
2023/10/13 09:09:09;;;;;;;23.10;15.32;;;17.10;99.90;;;;;;5036814;28;20044;-77
2023/10/13 09:11:48;;;;;;;17.75;13.80;;;17.20;99.90;;;;;;5034820;28;20464;-78
2023/10/13 09:14:33;;;;;;;19.05;14.82;;;17.20;99.90;;;;;;5032505;28;20048;-78
2023/10/13 09:19:49;;;;;;;19.40;13.52;;;17.40;99.90;;;;;;5036516;28;20103;-77
2023/10/13 09:22:35;;;;;;;21.45;13.52;;;17.40;99.90;;;;;;4993084;28;1312452;-77
2023/10/13 09:25:05;;;;;;;18.65;12.95;;;17.40;99.90;;;;;;5022102;28;20045;-77
2023/10/13 09:27:33;;;;;;;24.75;14.15;;;17.50;99.90;;;;;;5036701;28;20037;-76
2023/10/13 09:30:10;;;;;;;18.38;13.40;;;17.50;99.90;;;;;;5036284;28;20045;-77
2023/10/13 09:32:51;;;;;;;21.65;13.32;;;17.50;99.90;;;;;;5038497;28;20053;-78
2023/10/13 09:35:23;;;;;;;16.67;11.98;;;17.60;99.90;;;;;;5035143;28;20075;-77
2023/10/13 09:37:50;;;;;;;22.20;10.93;;;17.60;99.90;;;;;;5023673;28;20057;-77
2023/10/13 09:40:38;;;;;;;18.10;10.25;;;17.70;99.90;;;;;;5035994;28;20059;-77
2023/10/13 09:43:14;;;;;;;15.93;9.85;;;17.70;99.90;;;;;;5038341;28;20048;-77
2023/10/13 09:45:56;;;;;;;17.05;9.77;;;17.80;99.90;;;;;;5039212;28;20041;-77
2023/10/13 09:48:32;;;;;;;15.95;10.70;;;17.90;99.90;;;;;;5023332;28;20131;-77
2023/10/13 09:51:02;;;;;;;14.90;8.68;;;17.90;99.90;;;;;;5033118;28;21053;-77
2023/10/13 09:53:31;;;;;;;13.15;9.15;;;18.00;99.90;;;;;;5036830;28;20060;-78
2023/10/13 09:56:11;;;;;;;13.57;8.45;;;18.00;99.90;;;;;;5034990;28;20049;-78
2023/10/13 09:58:47;;;;;;;20.17;9.18;;;18.10;99.90;;;;;;5034446;28;20383;-78
2023/10/13 10:01:21;;;;;;;18.55;9.02;;;18.20;99.90;;;;;;5039888;28;20049;-77
2023/10/13 10:04:09;;;;;;;14.50;7.80;;;18.20;99.90;;;;;;5024652;28;20210;-77
2023/10/13 10:06:46;;;;;;;16.25;8.48;;;18.20;99.90;;;;;;5051904;28;20045;-78
2023/10/13 10:09:12;;;;;;;15.30;7.97;;;18.30;99.90;;;;;;5035936;28;20055;-79
2023/10/13 10:12:18;;;;;;;15.35;8.48;;;18.30;99.90;;;;;;5028637;28;20045;-78
2023/10/13 10:14:56;;;;;;;15.45;8.40;;;18.30;99.90;;;;;;5034066;28;20748;-78
2023/10/13 10:17:22;;;;;;;18.23;7.82;;;18.30;99.90;;;;;;5035033;28;20052;-77
2023/10/13 10:19:55;;;;;;;14.55;8.32;;;18.40;99.90;;;;;;5022629;28;20064;-78
2023/10/13 10:22:44;;;;;;;18.70;9.35;;;18.40;99.90;;;;;;5036262;28;20041;-78
2023/10/13 10:25:25;;;;;;;18.77;7.85;;;18.50;99.90;;;;;;5035975;28;20053;-78
2023/10/13 10:28:04;;;;;;;19.23;9.32;;;18.50;99.90;;;;;;5020103;28;20071;-77
2023/10/13 10:30:35;;;;;;;17.98;9.18;;;18.60;99.90;;;;;;5033928;28;20053;-77
2023/10/13 10:33:23;;;;;;;18.33;8.68;;;18.60;99.90;;;;;;5020988;28;20057;-78
2023/10/13 10:35:59;;;;;;;17.23;8.35;;;18.70;99.90;;;;;;5033439;28;20098;-77
2023/10/13 10:38:34;;;;;;;16.25;7.13;;;18.80;99.90;;;;;;5034191;28;20092;-77
2023/10/13 10:41:06;;;;;;;14.52;8.02;;;18.90;99.90;;;;;;5017653;28;20510;-78
2023/10/13 10:43:45;;;;;;;15.93;6.80;;;18.90;99.90;;;;;;5014083;28;20521;-77
2023/10/13 10:46:18;;;;;;;13.93;6.82;;;19.00;99.90;;;;;;5039146;28;20407;-77
2023/10/13 10:48:47;;;;;;;15.02;8.05;;;19.10;99.90;;;;;;5037837;28;20134;-77
2023/10/13 10:51:21;;;;;;;13.85;6.32;;;19.10;99.90;;;;;;5034329;28;20072;-77
2023/10/13 10:53:49;;;;;;;19.02;7.35;;;19.30;99.90;;;;;;5042326;28;20563;-78
2023/10/13 10:56:20;;;;;;;18.30;7.18;;;19.30;99.90;;;;;;5032279;28;20064;-77
2023/10/13 10:58:56;;;;;;;14.27;7.70;;;19.40;99.90;;;;;;5034364;28;20123;-77
2023/10/13 11:01:52;;;;;;;16.42;6.82;;;19.40;99.90;;;;;;5013466;28;20047;-77
2023/10/13 11:04:18;;;;;;;19.70;7.88;;;19.40;99.90;;;;;;5039522;28;20087;-78
2023/10/13 11:06:55;;;;;;;15.35;7.05;;;19.40;99.90;;;;;;5038430;28;20109;-77
2023/10/13 11:10:06;;;;;;;16.90;7.00;;;19.30;99.90;;;;;;5025264;28;20411;-78
2023/10/13 11:12:26;;;;;;;19.60;7.47;;;19.30;99.90;;;;;;5035380;28;20056;-78
2023/10/13 11:15:26;;;;;;;18.10;7.28;;;19.30;99.90;;;;;;5035807;28;20391;-78
2023/10/13 11:17:54;;;;;;;;;;;19.30;99.90;;;;;;5034794;28;20040;-77
2023/10/13 11:20:44;;;;;;;14.35;7.03;;;19.30;99.90;;;;;;5026395;28;20007;-77
2023/10/13 11:23:15;;;;;;;16.27;6.77;;;19.30;99.90;;;;;;5034079;28;20091;-78
2023/10/13 11:25:45;;;;;;;14.27;6.82;;;19.40;99.90;;;;;;5038877;28;20041;-78
2023/10/13 11:28:28;;;;;;;16.40;6.35;;;19.40;99.90;;;;;;5049572;28;20580;-77
2023/10/13 11:31:10;;;;;;;15.93;7.45;;;19.40;99.90;;;;;;5033028;28;20181;-77
2023/10/13 11:33:46;;;;;;;15.65;6.38;;;19.40;99.90;;;;;;5033782;28;20053;-75
2023/10/13 11:36:22;;;;;;;13.00;6.00;;;19.50;99.90;;;;;;5034189;28;20057;-77
2023/10/13 11:41:18;;;;;;;17.77;6.85;;;19.50;99.90;;;;;;5032815;28;20740;-77
2023/10/13 11:43:52;;;;;;;18.38;7.03;;;19.40;99.90;;;;;;5032254;28;20053;-76
2023/10/13 11:49:08;;;;;;;15.63;7.10;;;19.40;99.90;;;;;;5039231;28;20080;-77
2023/10/13 11:51:38;;;;;;;20.52;6.80;;;19.40;99.90;;;;;;5042622;28;20179;-76
2023/10/13 11:54:06;;;;;;;17.77;7.30;;;19.40;99.90;;;;;;5041217;28;20124;-76
2023/10/13 11:56:32;;;;;;;16.92;7.00;;;19.40;99.90;;;;;;5028256;28;20109;-76
2023/10/13 11:59:01;;;;;;;18.65;7.38;;;19.40;99.90;;;;;;5038335;28;20052;-76
2023/10/13 12:04:41;;;;;;;18.30;6.97;;;19.40;99.90;;;;;;5003227;28;20475;-76
2023/10/13 12:12:22;;;;;;;13.80;7.40;;;19.40;99.90;;;;;;5040606;28;20049;-76
2023/10/13 12:14:58;;;;;;;16.95;7.93;;;19.40;99.90;;;;;;5028092;28;20505;-76
2023/10/13 12:17:31;;;;;;;16.58;7.00;;;19.40;99.90;;;;;;5022492;28;20552;-76
2023/10/13 12:20:09;;;;;;;17.17;7.95;;;19.40;99.90;;;;;;5023681;28;20048;-75
2023/10/13 12:22:35;;;;;;;14.13;7.30;;;19.40;99.90;;;;;;5036745;28;20134;-76
2023/10/13 12:25:05;;;;;;;15.32;7.22;;;19.30;99.90;;;;;;5025267;28;20079;-76
2023/10/13 12:27:45;;;;;;;13.23;7.63;;;19.30;99.90;;;;;;5017200;28;20450;-76
2023/10/13 12:30:22;;;;;;;16.27;7.22;;;19.30;99.90;;;;;;5034886;28;20403;-76
2023/10/13 12:33:06;;;;;;;15.38;7.53;;;19.30;99.90;;;;;;5022862;28;20041;-76
2023/10/13 12:35:54;;;;;;;13.52;6.95;;;19.30;99.90;;;;;;5040469;28;20053;-76
2023/10/13 12:48:55;;;;;;;15.13;7.45;;;19.30;99.90;;;;;;5025360;28;20376;-76
2023/10/13 12:52:05;;;;;;;15.88;8.02;;;19.30;99.90;;;;;;5038452;28;21078;-76
2023/10/13 12:54:38;;;;;;;15.77;7.85;;;19.30;99.90;;;;;;5024283;28;20506;-76
2023/10/13 12:57:09;;;;;;;15.23;8.07;;;19.40;99.90;;;;;;5036461;28;20058;-75
2023/10/13 12:59:35;;;;;;;16.98;8.25;;;19.40;99.90;;;;;;5058729;28;20048;-75
2023/10/13 13:02:06;;;;;;;17.85;7.75;;;19.40;99.90;;;;;;5022828;28;20550;-76
2023/10/13 13:04:36;;;;;;;16.90;8.55;;;19.60;99.90;;;;;;5036452;28;20125;-76
2023/10/13 13:07:03;;;;;;;19.13;7.95;;;19.50;99.90;;;;;;5036198;28;20057;-75
2023/10/13 13:09:30;;;;;;;18.70;7.97;;;19.50;99.90;;;;;;5037171;28;20499;-75
2023/10/13 13:11:57;;;;;;;20.80;8.73;;;19.50;99.90;;;;;;5022410;28;20795;-74
2023/10/13 13:14:29;;;;;;;17.60;8.07;;;19.50;99.90;;;;;;5037902;28;20037;-75
2023/10/13 13:17:04;;;;;;;15.60;8.13;;;19.40;99.90;;;;;;5040079;28;20052;-74
2023/10/13 13:19:36;;;;;;;13.32;7.93;;;19.40;99.90;;;;;;5038212;28;20499;-75
2023/10/13 13:22:11;;;;;;;16.35;8.68;;;19.40;99.90;;;;;;5038088;28;20400;-75
2023/10/13 13:24:44;;;;;;;16.67;8.02;;;19.40;99.90;;;;;;5026240;28;20076;-75
2023/10/13 13:27:13;;;;;;;17.95;9.55;;;19.30;99.90;;;;;;5022100;28;20059;-74
2023/10/13 13:29:42;;;;;;;18.73;8.57;;;19.30;99.90;;;;;;5023141;28;20123;-75
2023/10/13 13:32:17;;;;;;;16.38;8.55;;;19.30;99.90;;;;;;5039801;28;20047;-74
2023/10/13 13:34:44;;;;;;;17.40;8.32;;;19.30;99.90;;;;;;5038764;28;20571;-75
2023/10/13 13:37:12;;;;;;;19.35;8.55;;;19.30;99.90;;;;;;5024152;28;20043;-74
2023/10/13 13:39:44;;;;;;;16.65;8.65;;;19.30;99.90;;;;;;5037565;28;20425;-74
2023/10/13 13:42:10;;;;;;;19.25;7.95;;;19.20;99.90;;;;;;5038335;28;21078;-75
2023/10/13 13:44:36;;;;;;;20.27;9.23;;;19.20;99.90;;;;;;5024157;28;20435;-75
2023/10/13 13:47:11;;;;;;;18.63;9.00;;;19.20;99.90;;;;;;5039335;28;20056;-75
2023/10/13 13:49:46;;;;;;;17.35;8.50;;;19.20;99.90;;;;;;5037050;28;20150;-75
2023/10/13 13:52:17;;;;;;;17.67;8.40;;;19.10;99.90;;;;;;5033613;28;20509;-76
2023/10/13 13:54:44;;;;;;;18.95;9.18;;;19.00;99.90;;;;;;5019330;28;20133;-75
2023/10/13 13:57:10;;;;;;;15.90;8.43;;;19.00;99.90;;;;;;5036046;28;20053;-75
2023/10/13 13:59:36;;;;;;;17.02;9.50;;;18.90;99.90;;;;;;5037918;28;20067;-75
2023/10/13 14:02:19;;;;;;;14.57;9.90;;;18.80;99.90;;;;;;5033122;28;20053;-76
2023/10/13 14:04:52;;;;;;;15.27;9.27;;;18.80;99.90;;;;;;5034331;28;20052;-75
2023/10/13 14:07:23;;;;;;;17.20;9.68;;;18.80;99.90;;;;;;5025842;28;20087;-76
2023/10/13 14:09:52;;;;;;;17.88;10.30;;;18.80;99.90;;;;;;5035835;28;20048;-75
2023/10/13 14:12:34;;;;;;;17.38;8.82;;;18.70;99.90;;;;;;5033360;28;20061;-76
2023/10/13 14:15:01;;;;;;;21.02;9.63;;;18.70;99.90;;;;;;5019769;28;20071;-76
2023/10/13 14:17:29;;;;;;;17.48;9.35;;;18.70;99.90;;;;;;5052129;28;20556;-75
2023/10/13 14:19:56;;;;;;;17.40;9.52;;;18.70;99.90;;;;;;5020554;28;20036;-75
2023/10/13 14:22:24;;;;;;;19.63;9.85;;;18.60;99.90;;;;;;5019517;28;20056;-76
2023/10/13 14:24:56;;;;;;;19.48;9.18;;;18.60;99.90;;;;;;5022859;28;20867;-76
2023/10/13 14:27:25;;;;;;;18.50;9.77;;;18.60;99.90;;;;;;5038545;28;20053;-76
2023/10/13 14:29:56;;;;;;;18.63;8.82;;;18.60;99.90;;;;;;5039847;28;20052;-75
2023/10/13 14:32:24;;;;;;;21.05;10.25;;;18.60;99.90;;;;;;5022039;28;20056;-75
2023/10/13 14:34:54;;;;;;;18.67;9.73;;;18.50;99.90;;;;;;5022810;28;20594;-75
2023/10/13 14:37:41;;;;;;;;;;;18.50;99.90;;;;;;5037013;28;20041;-75
2023/10/13 14:40:12;;;;;;;17.85;9.68;;;18.50;99.90;;;;;;5037027;28;19928;-76
2023/10/13 14:42:41;;;;;;;15.88;9.48;;;18.60;99.90;;;;;;5001489;28;20061;-75
2023/10/13 14:45:13;;;;;;;21.77;10.77;;;18.60;99.90;;;;;;5002638;28;20084;-75
2023/10/13 14:47:43;;;;;;;19.05;9.70;;;18.60;99.90;;;;;;5003582;28;20104;-76
2023/10/13 14:50:19;;;;;;;25.58;10.75;;;18.60;99.90;;;;;;5001780;28;20034;-76
2023/10/13 14:52:47;;;;;;;13.77;9.30;;;18.60;99.90;;;;;;4985022;28;20058;-76
2023/10/13 14:55:21;;;;;;;16.98;9.40;;;18.60;99.90;;;;;;4988154;28;20109;-76
2023/10/13 14:57:50;;;;;;;16.38;9.45;;;18.60;99.90;;;;;;4987664;28;20068;-76
2023/10/13 15:00:24;;;;;;;17.40;9.70;;;18.60;99.90;;;;;;5001877;28;20061;-76
2023/10/13 15:02:54;;;;;;;21.73;11.07;;;18.60;99.90;;;;;;5002810;28;20053;-77
2023/10/13 15:05:20;;;;;;;20.67;11.18;;;18.60;99.90;;;;;;4984317;28;20110;-77
2023/10/13 15:07:45;;;;;;;19.30;11.13;;;18.50;99.90;;;;;;4999715;28;20054;-77
2023/10/13 15:10:15;;;;;;;20.48;12.13;;;18.40;99.90;;;;;;4996367;28;20053;-76
2023/10/13 15:12:51;;;;;;;17.92;11.45;;;18.30;99.90;;;;;;5002528;28;20595;-76
2023/10/13 15:15:19;;;;;;;21.38;12.02;;;18.20;99.90;;;;;;5020470;28;20041;-76
2023/10/13 15:17:45;;;;;;;18.40;11.38;;;18.10;99.90;;;;;;5038008;28;20419;-76
2023/10/13 15:20:18;;;;;;;21.08;11.95;;;18.10;99.90;;;;;;5019726;28;20129;-77
2023/10/13 15:22:44;;;;;;;23.88;12.32;;;18.10;99.90;;;;;;5021788;28;20045;-76
2023/10/13 15:25:39;;;;;;;22.30;11.77;;;18.10;99.90;;;;;;5019700;28;20435;-76
2023/10/13 15:28:02;;;;;;;20.15;12.30;;;18.00;99.90;;;;;;5043421;28;20060;-76
2023/10/13 15:30:43;;;;;;;18.95;12.82;;;18.00;99.90;;;;;;5042257;28;20761;-76
2023/10/13 15:33:13;;;;;;;20.33;12.35;;;18.00;99.90;;;;;;5027411;28;20049;-76
2023/10/13 15:35:42;;;;;;;21.05;13.73;;;17.90;99.90;;;;;;5025846;28;20486;-76
2023/10/13 15:38:14;;;;;;;24.30;13.82;;;17.90;99.90;;;;;;5042655;28;20167;-76
2023/10/13 15:40:44;;;;;;;19.17;12.32;;;17.90;99.90;;;;;;5029783;28;20411;-76
2023/10/13 15:43:10;;;;;;;;;;;17.90;99.90;;;;;;5044038;28;20091;-77
2023/10/13 15:45:39;;;;;;;22.27;12.75;;;17.90;99.90;;;;;;5027756;28;19925;-77
2023/10/13 15:48:06;;;;;;;22.30;12.77;;;17.90;99.90;;;;;;5029314;28;20052;-76
2023/10/13 15:50:41;;;;;;;23.70;12.43;;;17.90;99.90;;;;;;5024925;28;20538;-76
2023/10/13 15:53:12;;;;;;;20.58;12.23;;;17.90;99.90;;;;;;5036950;28;20037;-76
2023/10/13 15:55:38;;;;;;;21.25;12.25;;;17.90;99.90;;;;;;5025664;28;20037;-76
2023/10/13 15:58:08;;;;;;;21.73;12.02;;;17.90;99.90;;;;;;5042452;28;20041;-76
2023/10/13 16:00:37;;;;;;;20.13;11.73;;;17.80;99.90;;;;;;5041475;28;20072;-76
2023/10/13 16:03:10;;;;;;;17.65;12.00;;;17.90;99.90;;;;;;5026287;28;20040;-76
2023/10/13 16:05:38;;;;;;;22.88;11.90;;;17.80;99.90;;;;;;5025480;28;20665;-76
2023/10/13 16:08:10;;;;;;;19.42;10.82;;;17.80;99.90;;;;;;5028464;28;20068;-76
2023/10/13 16:10:42;;;;;;;17.45;10.93;;;17.80;99.90;;;;;;5038473;28;20041;-76
2023/10/13 16:13:15;;;;;;;18.40;11.07;;;17.80;99.90;;;;;;5025747;28;20389;-75
2023/10/13 16:15:42;;;;;;;18.60;9.32;;;17.80;99.90;;;;;;5024753;28;20041;-76
2023/10/13 16:18:09;;;;;;;17.25;9.45;;;17.80;99.90;;;;;;5024519;28;20369;-76
2023/10/13 16:20:39;;;;;;;14.73;9.10;;;17.80;99.90;;;;;;5023294;28;20131;-76
2023/10/13 16:23:05;;;;;;;13.35;7.03;;;17.80;99.90;;;;;;5027366;28;20048;-76
2023/10/13 16:25:31;;;;;;;11.85;7.40;;;17.80;99.90;;;;;;5057658;28;20037;-76